Terminal Aerodrome Forecast
Issued by NWS

Home | Current Version | Previous Version | Text Only | Print | Product List | Glossary Off
Versions: 1 2 3 4 5 6 7 8 9 10 11 12 13 14 15 16 17 18 19 20 21

000
FTUS43 KFGF 200500
TAFBJI
TAF
KBJI 200520Z 2006/2106 VRB02KT P6SM FEW050
      TEMPO 2007/2011 3SM BR SCT005
     FM201800 15008KT P6SM SCT040
     FM202100 15012KT P6SM BKN120
     FM210300 16014KT P6SM VCTS BKN040CB=

USA.gov is the U.S. government's official web portal to all federal, state and local government web resources and services.